createdAt,value
2023-03-11T00:01:15.131Z,1.80
2023-03-11T00:03:23.228Z,1.90
2023-03-11T00:05:36.161Z,1.90
2023-03-11T00:07:41.083Z,1.90
2023-03-11T00:09:46.843Z,1.90
2023-03-11T00:11:53.214Z,1.80
2023-03-11T00:14:02.474Z,1.90
2023-03-11T00:16:09.162Z,1.80
2023-03-11T00:18:17.885Z,1.80
2023-03-11T00:20:32.594Z,1.80
2023-03-11T00:22:37.723Z,1.80
2023-03-11T00:24:43.891Z,1.90
2023-03-11T00:26:50.591Z,1.80
2023-03-11T00:28:55.628Z,1.80
2023-03-11T00:31:02.272Z,1.80
2023-03-11T00:33:08.108Z,1.80
2023-03-11T00:35:17.464Z,1.70
2023-03-11T00:37:25.864Z,1.50
2023-03-11T00:39:30.738Z,1.50
2023-03-11T00:41:38.453Z,1.50
2023-03-11T00:43:44.426Z,1.60
2023-03-11T00:45:49.820Z,1.50
2023-03-11T00:47:57.761Z,1.50
2023-03-11T00:50:04.200Z,1.50
2023-03-11T00:52:09.916Z,1.50
2023-03-11T00:54:21.405Z,1.50
2023-03-11T00:56:26.467Z,1.50
2023-03-11T00:58:33.256Z,1.50
2023-03-11T01:00:38.801Z,1.50
2023-03-11T01:02:44.359Z,1.60
2023-03-11T01:04:49.262Z,1.60
2023-03-11T01:07:01.214Z,1.60
2023-03-11T01:09:06.594Z,1.50
2023-03-11T01:11:16.502Z,1.50
2023-03-11T01:13:24.562Z,1.50
2023-03-11T01:15:35.851Z,1.50
2023-03-11T01:17:40.747Z,1.50
2023-03-11T01:19:46.866Z,1.50
2023-03-11T01:21:51.740Z,1.50
2023-03-11T01:23:56.622Z,1.50
2023-03-11T01:26:03.410Z,1.50
2023-03-11T01:28:11.281Z,1.50
2023-03-11T01:30:19.817Z,1.50
2023-03-11T01:32:25.784Z,1.50
2023-03-11T01:34:31.990Z,1.50
2023-03-11T01:36:38.649Z,1.50
2023-03-11T01:38:44.302Z,1.50
2023-03-11T01:40:53.662Z,1.50
2023-03-11T01:42:59.654Z,1.30
2023-03-11T01:45:46.447Z,1.20
2023-03-11T01:47:51.622Z,1.20
2023-03-11T01:49:56.660Z,1.30
2023-03-11T01:52:08.003Z,1.40
2023-03-11T01:54:23.728Z,1.40
2023-03-11T01:56:29.042Z,1.40
2023-03-11T01:58:44.978Z,1.50
2023-03-11T02:00:52.732Z,1.40
2023-03-11T02:03:01.034Z,1.40
2023-03-11T02:05:08.213Z,1.50
2023-03-11T02:07:16.737Z,1.50
2023-03-11T02:09:24.287Z,1.50
2023-03-11T02:11:33.292Z,1.50
2023-03-11T02:13:40.053Z,1.50
2023-03-11T02:15:45.326Z,1.50
2023-03-11T02:17:53.682Z,1.50
2023-03-11T02:20:15.357Z,1.50
2023-03-11T02:22:21.193Z,1.40
2023-03-11T02:24:33.784Z,1.30
2023-03-11T02:26:45.892Z,1.30
2023-03-11T02:28:55.318Z,1.30
2023-03-11T02:31:00.876Z,1.30
2023-03-11T02:33:06.477Z,1.40
2023-03-11T02:35:11.950Z,1.30
2023-03-11T02:37:20.284Z,1.30
2023-03-11T02:39:34.185Z,1.30
2023-03-11T02:41:41.610Z,1.40
2023-03-11T02:43:49.499Z,1.40
2023-03-11T02:46:00.133Z,1.40
2023-03-11T02:48:06.098Z,1.40
2023-03-11T02:50:18.307Z,1.40
2023-03-11T02:52:26.141Z,1.40
2023-03-11T02:54:33.697Z,1.40
2023-03-11T02:56:38.752Z,1.40
2023-03-11T02:58:43.745Z,1.40
2023-03-11T03:00:49.077Z,1.40
2023-03-11T03:02:58.582Z,1.40
2023-03-11T03:05:04.890Z,1.40
2023-03-11T03:07:10.197Z,1.50
2023-03-11T03:09:15.882Z,1.40
2023-03-11T03:11:22.246Z,1.20
2023-03-11T03:13:27.118Z,1.20
2023-03-11T03:15:33.939Z,1.20
2023-03-11T03:17:39.784Z,1.20
2023-03-11T03:19:48.362Z,1.20
2023-03-11T03:21:53.262Z,1.30
2023-03-11T03:24:00.204Z,1.20
2023-03-11T03:26:05.347Z,1.20
2023-03-11T03:28:13.183Z,1.30
2023-03-11T03:30:22.655Z,1.20
2023-03-11T03:32:28.639Z,1.30
2023-03-11T03:34:34.098Z,1.20
2023-03-11T03:36:43.084Z,1.20
2023-03-11T03:38:51.098Z,1.10
2023-03-11T03:40:56.134Z,1.10
2023-03-11T03:43:02.093Z,1.10
2023-03-11T03:45:13.492Z,1.00
2023-03-11T03:47:18.604Z,1.00
2023-03-11T03:49:25.319Z,1.00
2023-03-11T03:51:31.826Z,1.00
2023-03-11T03:53:53.316Z,1.00
2023-03-11T03:56:01.341Z,0.90
2023-03-11T03:58:06.859Z,1.00
2023-03-11T04:00:15.778Z,0.90
2023-03-11T04:02:25.765Z,0.90
2023-03-11T04:04:31.881Z,0.90
2023-03-11T04:06:36.910Z,1.00
2023-03-11T04:08:44.872Z,1.00
2023-03-11T04:11:01.878Z,1.00
2023-03-11T04:13:08.816Z,0.90
2023-03-11T04:15:15.738Z,0.90
2023-03-11T04:17:23.621Z,1.00
2023-03-11T04:19:31.065Z,0.90
2023-03-11T04:21:36.420Z,1.00
2023-03-11T04:23:42.308Z,1.00
2023-03-11T04:25:48.398Z,1.00
2023-03-11T04:27:56.264Z,1.00
2023-03-11T04:30:03.979Z,0.90
2023-03-11T04:32:10.830Z,1.00
2023-03-11T04:34:16.542Z,1.00
2023-03-11T04:36:21.886Z,0.90
2023-03-11T04:38:28.623Z,0.90
2023-03-11T04:40:33.606Z,0.90
2023-03-11T04:42:41.660Z,0.90
2023-03-11T04:44:49.894Z,0.90
2023-03-11T04:46:55.047Z,0.90
2023-03-11T04:49:00.013Z,0.90
2023-03-11T04:51:10.209Z,0.90
2023-03-11T04:53:15.686Z,0.90
2023-03-11T04:55:21.524Z,0.90
2023-03-11T04:57:26.629Z,1.00
2023-03-11T04:59:31.548Z,0.90
2023-03-11T05:01:39.316Z,0.90
2023-03-11T05:03:46.440Z,0.90
2023-03-11T05:05:53.435Z,0.90
2023-03-11T05:07:59.230Z,0.90
2023-03-11T05:10:04.401Z,0.90
2023-03-11T05:12:13.512Z,0.90
2023-03-11T05:14:21.344Z,0.90
2023-03-11T05:16:27.817Z,0.90
2023-03-11T05:18:35.568Z,0.80
2023-03-11T05:20:41.801Z,0.90
2023-03-11T05:22:48.510Z,0.90
2023-03-11T05:24:56.392Z,0.80
2023-03-11T05:27:04.302Z,0.80
2023-03-11T05:29:09.561Z,0.90
2023-03-11T05:31:16.180Z,0.80
2023-03-11T05:33:21.097Z,0.90
2023-03-11T05:35:30.275Z,0.90
2023-03-11T05:37:37.865Z,0.80
2023-03-11T05:39:42.878Z,0.90
2023-03-11T05:41:48.309Z,0.90
2023-03-11T05:43:53.809Z,0.80
2023-03-11T05:45:58.963Z,0.80
2023-03-11T05:48:04.788Z,0.80
2023-03-11T05:50:14.159Z,0.80
2023-03-11T05:52:23.255Z,0.80
2023-03-11T05:54:29.353Z,0.80
2023-03-11T05:56:34.267Z,0.80
2023-03-11T05:58:39.434Z,0.70
2023-03-11T06:00:45.417Z,0.80
2023-03-11T06:02:50.514Z,0.80
2023-03-11T06:04:57.278Z,0.80
2023-03-11T06:07:02.529Z,0.80
2023-03-11T06:09:15.378Z,0.80
2023-03-11T06:11:24.189Z,0.70
2023-03-11T06:13:29.062Z,0.70
2023-03-11T06:15:35.642Z,0.70
2023-03-11T06:17:40.723Z,0.70
2023-03-11T06:19:49.240Z,0.70
2023-03-11T06:21:54.592Z,0.70
2023-03-11T06:23:59.490Z,0.70
2023-03-11T06:26:09.236Z,0.60
2023-03-11T06:28:19.320Z,0.70
2023-03-11T06:30:26.484Z,0.60
2023-03-11T06:32:50.422Z,0.70
2023-03-11T06:34:56.450Z,0.70
2023-03-11T06:37:02.773Z,0.70
2023-03-11T06:39:08.053Z,0.70
2023-03-11T06:41:17.341Z,0.70
2023-03-11T06:43:24.708Z,0.70
2023-03-11T06:45:31.391Z,0.70
2023-03-11T06:47:37.786Z,0.70
2023-03-11T06:49:49.067Z,0.70
2023-03-11T06:51:54.888Z,0.70
2023-03-11T06:54:00.079Z,0.70
2023-03-11T06:56:09.831Z,0.80
2023-03-11T06:58:23.362Z,0.80
2023-03-11T07:00:30.308Z,0.70
2023-03-11T07:02:37.395Z,0.70
2023-03-11T07:04:42.537Z,0.70
2023-03-11T07:06:47.902Z,0.70
2023-03-11T07:08:57.798Z,0.80
2023-03-11T07:11:05.200Z,0.80
2023-03-11T07:13:11.996Z,0.80
2023-03-11T07:15:20.252Z,0.80
2023-03-11T07:17:26.392Z,0.80
2023-03-11T07:19:31.975Z,0.80
2023-03-11T07:21:38.340Z,0.90
2023-03-11T07:23:44.552Z,1.00
2023-03-11T07:25:51.825Z,1.00
2023-03-11T07:27:57.332Z,1.00
2023-03-11T07:30:04.251Z,1.10
2023-03-11T07:32:13.139Z,1.10
2023-03-11T07:34:19.043Z,1.10
2023-03-11T07:36:26.806Z,1.10
2023-03-11T07:38:31.898Z,1.10
2023-03-11T07:40:37.159Z,1.10
2023-03-11T07:42:42.633Z,1.20
2023-03-11T07:44:48.738Z,1.20
2023-03-11T07:46:55.199Z,1.10
2023-03-11T07:49:03.848Z,1.10
2023-03-11T07:51:12.543Z,1.10
2023-03-11T07:53:17.419Z,1.10
2023-03-11T07:55:25.983Z,1.10
2023-03-11T07:57:33.641Z,1.00
2023-03-11T07:59:43.477Z,1.00
2023-03-11T08:01:48.378Z,1.00
2023-03-11T08:03:58.560Z,1.00
2023-03-11T08:06:14.157Z,1.10
2023-03-11T08:08:19.504Z,1.10
2023-03-11T08:10:24.363Z,1.10
2023-03-11T08:12:29.379Z,1.10
2023-03-11T08:14:36.679Z,1.10
2023-03-11T08:16:44.029Z,1.10
2023-03-11T08:18:50.352Z,1.10
2023-03-11T08:20:55.627Z,1.10
2023-03-11T08:23:04.522Z,1.00
2023-03-11T08:25:10.394Z,1.00
2023-03-11T08:27:15.620Z,1.00
2023-03-11T08:29:20.539Z,0.90
2023-03-11T08:31:28.900Z,0.80
2023-03-11T08:33:36.542Z,0.80
2023-03-11T08:35:41.716Z,0.90
2023-03-11T08:37:47.072Z,0.90
2023-03-11T08:39:54.804Z,1.00
2023-03-11T08:41:59.884Z,1.00
2023-03-11T08:44:04.910Z,1.10
2023-03-11T08:46:23.883Z,1.00
2023-03-11T08:48:31.342Z,1.10
2023-03-11T08:50:52.993Z,1.10
2023-03-11T08:53:00.627Z,1.20
2023-03-11T08:55:11.586Z,1.20
2023-03-11T08:57:18.353Z,1.30
2023-03-11T08:59:25.743Z,1.30
2023-03-11T09:01:32.288Z,1.40
2023-03-11T09:03:39.013Z,1.40
2023-03-11T09:05:46.509Z,1.40
2023-03-11T09:07:51.534Z,1.50
2023-03-11T09:09:57.663Z,1.40
2023-03-11T09:12:05.528Z,1.50
2023-03-11T09:14:11.231Z,1.50
2023-03-11T09:16:19.737Z,1.50
2023-03-11T09:18:24.685Z,1.50
2023-03-11T09:20:29.576Z,1.40
2023-03-11T09:22:35.805Z,1.40
2023-03-11T09:24:41.197Z,1.40
2023-03-11T09:26:46.095Z,1.50
2023-03-11T09:28:55.938Z,1.40
2023-03-11T09:31:01.274Z,1.40
2023-03-11T09:33:06.244Z,1.50
2023-03-11T09:35:14.790Z,1.40
2023-03-11T09:37:21.264Z,1.50
2023-03-11T09:39:26.235Z,1.60
2023-03-11T09:41:55.702Z,1.70
2023-03-11T09:44:27.988Z,1.70
2023-03-11T09:47:08.689Z,1.80
2023-03-11T09:49:27.354Z,1.80
2023-03-11T09:51:39.329Z,1.90
2023-03-11T09:53:47.093Z,2.00
2023-03-11T09:55:53.347Z,2.10
2023-03-11T09:58:02.848Z,2.00
2023-03-11T10:00:20.947Z,1.80
2023-03-11T10:02:28.270Z,1.70
2023-03-11T10:04:41.434Z,1.80
2023-03-11T10:06:53.122Z,1.70
2023-03-11T10:09:10.901Z,1.60
2023-03-11T10:11:40.583Z,1.70
2023-03-11T10:13:57.915Z,1.70
2023-03-11T10:16:19.170Z,1.70
2023-03-11T10:18:41.078Z,1.80
2023-03-11T10:20:58.952Z,1.80
2023-03-11T10:23:20.166Z,1.90
2023-03-11T10:25:34.132Z,1.80
2023-03-11T10:27:45.989Z,1.90
2023-03-11T10:29:59.744Z,1.90
2023-03-11T10:32:19.861Z,1.80
2023-03-11T10:34:38.248Z,1.90
2023-03-11T10:36:54.913Z,1.90
2023-03-11T10:39:00.289Z,1.90
2023-03-11T10:41:16.145Z,1.90
2023-03-11T10:43:27.813Z,1.90
2023-03-11T10:45:41.761Z,2.00
2023-03-11T10:47:49.674Z,2.10
2023-03-11T10:49:56.872Z,2.30
2023-03-11T10:52:05.040Z,2.20
2023-03-11T10:54:09.814Z,2.30
2023-03-11T10:56:32.322Z,2.40
2023-03-11T10:58:37.296Z,2.70
2023-03-11T11:00:42.385Z,2.80
2023-03-11T11:02:59.376Z,2.90
2023-03-11T11:05:26.272Z,2.70
2023-03-11T11:07:36.258Z,2.60
2023-03-11T11:09:41.233Z,2.70
2023-03-11T11:12:02.893Z,2.70
2023-03-11T11:14:09.448Z,2.50
2023-03-11T11:16:23.396Z,2.40
2023-03-11T11:18:36.503Z,2.50
2023-03-11T11:20:53.454Z,2.50
2023-03-11T11:23:01.398Z,2.60
2023-03-11T11:25:30.203Z,2.70
2023-03-11T11:27:36.121Z,2.80
2023-03-11T11:29:41.160Z,2.90
2023-03-11T11:31:48.656Z,2.80
2023-03-11T11:34:00.942Z,2.80
2023-03-11T11:36:09.116Z,2.90
2023-03-11T11:38:14.495Z,2.90
2023-03-11T11:40:31.567Z,3.00
2023-03-11T11:42:37.060Z,2.90
2023-03-11T11:44:45.564Z,2.90
2023-03-11T11:46:56.421Z,3.00
2023-03-11T11:49:19.535Z,3.00
2023-03-11T11:51:32.292Z,3.00
2023-03-11T11:53:46.278Z,3.20
2023-03-11T11:55:54.299Z,3.30
2023-03-11T11:58:00.387Z,3.20
2023-03-11T12:00:12.070Z,3.00
2023-03-11T12:02:42.344Z,3.20
2023-03-11T12:05:00.356Z,3.30
2023-03-11T12:07:22.158Z,3.40
2023-03-11T12:09:37.927Z,3.30
2023-03-11T12:11:50.325Z,3.20
2023-03-11T12:14:06.054Z,3.20
2023-03-11T12:16:29.154Z,3.30
2023-03-11T12:18:41.798Z,3.30
2023-03-11T12:20:57.137Z,3.40
2023-03-11T12:23:20.827Z,3.50
2023-03-11T12:25:45.379Z,3.50
2023-03-11T12:27:56.848Z,3.70
2023-03-11T12:30:06.042Z,3.70
2023-03-11T12:32:13.581Z,3.80
2023-03-11T12:34:24.778Z,3.90
2023-03-11T12:36:34.929Z,3.90
2023-03-11T12:38:42.850Z,4.10
2023-03-11T12:41:10.823Z,4.30
2023-03-11T12:44:02.339Z,4.20
2023-03-11T12:46:09.912Z,4.50
2023-03-11T12:48:36.868Z,4.60
2023-03-11T12:50:48.149Z,4.40
2023-03-11T12:53:00.090Z,4.10
2023-03-11T12:55:39.596Z,4.10
2023-03-11T12:57:57.068Z,4.20
2023-03-11T13:00:42.163Z,4.30
2023-03-11T13:03:45.993Z,4.00
2023-03-11T13:06:04.327Z,4.20
2023-03-11T13:08:18.479Z,4.00
2023-03-11T13:10:43.623Z,4.10
2023-03-11T13:12:50.747Z,4.30
2023-03-11T13:15:31.816Z,4.20
2023-03-11T13:17:37.101Z,4.20
2023-03-11T13:20:00.426Z,4.40
2023-03-11T13:22:07.610Z,4.30
2023-03-11T13:24:52.301Z,4.30
2023-03-11T13:27:06.030Z,4.30
2023-03-11T13:29:46.774Z,4.10
2023-03-11T13:32:11.454Z,4.00
2023-03-11T13:34:19.845Z,3.70
2023-03-11T13:36:47.565Z,3.70
2023-03-11T13:39:21.449Z,4.00
2023-03-11T13:41:35.097Z,4.00
2023-03-11T13:43:48.846Z,4.00
2023-03-11T13:46:00.809Z,4.20
2023-03-11T13:48:15.666Z,4.20
2023-03-11T13:50:29.624Z,4.20
2023-03-11T13:52:40.392Z,4.00
2023-03-11T13:54:55.389Z,3.90
2023-03-11T13:57:06.879Z,4.20
2023-03-11T13:59:26.072Z,4.30
2023-03-11T14:01:31.122Z,4.40
2023-03-11T14:03:44.646Z,4.30
2023-03-11T14:05:53.065Z,4.30
2023-03-11T14:07:58.040Z,4.40
2023-03-11T14:10:20.662Z,4.40
2023-03-11T14:12:33.618Z,4.20
2023-03-11T14:14:50.595Z,4.10
2023-03-11T14:16:59.802Z,3.70
2023-03-11T14:19:14.890Z,3.90
2023-03-11T14:21:23.200Z,3.80
2023-03-11T14:23:33.313Z,3.90
2023-03-11T14:25:38.437Z,3.90
2023-03-11T14:28:02.152Z,3.90
2023-03-11T14:30:09.400Z,4.10
2023-03-11T14:32:31.257Z,4.90
2023-03-11T14:34:43.638Z,4.70
2023-03-11T14:36:54.373Z,4.70
2023-03-11T14:38:59.624Z,4.40
2023-03-11T14:41:10.636Z,4.50
2023-03-11T14:43:18.300Z,4.40
2023-03-11T14:45:27.499Z,4.80
2023-03-11T14:47:40.479Z,4.60
2023-03-11T14:49:50.446Z,4.30
2023-03-11T14:52:05.218Z,4.40
2023-03-11T14:54:20.190Z,4.60
2023-03-11T14:56:28.897Z,4.40
2023-03-11T14:58:40.947Z,4.40
2023-03-11T15:00:52.775Z,4.00
2023-03-11T15:03:07.690Z,4.20
2023-03-11T15:05:21.100Z,4.30
2023-03-11T15:07:26.611Z,4.20
2023-03-11T15:09:33.973Z,3.90
2023-03-11T15:11:52.229Z,3.90
2023-03-11T15:14:26.387Z,4.00
2023-03-11T15:16:36.705Z,4.10
2023-03-11T15:18:42.987Z,3.90
2023-03-11T15:21:03.687Z,3.90
2023-03-11T15:23:18.912Z,4.00
2023-03-11T15:25:23.999Z,4.10
2023-03-11T15:27:41.678Z,3.90
2023-03-11T15:29:55.257Z,4.10
2023-03-11T15:32:00.508Z,4.30
2023-03-11T15:34:35.634Z,4.40
2023-03-11T15:36:47.016Z,4.30
2023-03-11T15:39:15.111Z,4.30
2023-03-11T15:41:22.000Z,4.40
2023-03-11T15:43:34.090Z,4.40
2023-03-11T15:45:44.507Z,4.60
2023-03-11T15:47:51.738Z,4.30
2023-03-11T15:49:57.250Z,4.30
2023-03-11T15:52:03.268Z,4.50
2023-03-11T15:54:10.695Z,4.30
2023-03-11T15:56:26.401Z,4.20
2023-03-11T15:58:34.781Z,4.60
2023-03-11T16:00:49.544Z,4.60
2023-03-11T16:02:54.624Z,4.60
2023-03-11T16:05:01.226Z,4.40
2023-03-11T16:07:08.753Z,4.20
2023-03-11T16:09:15.250Z,4.20
2023-03-11T16:11:21.572Z,4.20
2023-03-11T16:13:26.609Z,4.30
2023-03-11T16:15:35.569Z,4.30
2023-03-11T16:17:49.882Z,4.30
2023-03-11T16:19:55.214Z,4.30
2023-03-11T16:22:00.661Z,4.30
2023-03-11T16:24:06.996Z,4.30
2023-03-11T16:26:17.056Z,4.20
2023-03-11T16:28:22.264Z,4.30
2023-03-11T16:30:29.527Z,4.20
2023-03-11T16:32:34.497Z,4.10
2023-03-11T16:34:42.922Z,4.00
2023-03-11T16:36:51.710Z,4.00
2023-03-11T16:38:58.837Z,4.00
2023-03-11T16:41:08.365Z,3.90
2023-03-11T16:43:17.626Z,3.80
2023-03-11T16:45:24.741Z,3.80
2023-03-11T16:47:29.667Z,3.80
2023-03-11T16:49:34.613Z,3.80
2023-03-11T16:51:42.131Z,3.70
2023-03-11T16:53:48.096Z,3.60
2023-03-11T16:55:57.916Z,3.60
2023-03-11T16:58:03.230Z,3.60
2023-03-11T17:00:14.876Z,3.60
2023-03-11T17:02:19.873Z,3.60
2023-03-11T17:04:24.827Z,3.60
2023-03-11T17:06:30.958Z,3.50
2023-03-11T17:08:39.817Z,3.50
2023-03-11T17:10:47.267Z,3.50
2023-03-11T17:12:54.907Z,3.40
2023-03-11T17:14:59.884Z,3.40
2023-03-11T17:17:05.273Z,3.40
2023-03-11T17:19:10.263Z,3.40
2023-03-11T17:21:18.104Z,3.40
2023-03-11T17:23:23.390Z,3.40
2023-03-11T17:25:31.044Z,3.40
2023-03-11T17:27:37.549Z,3.40
2023-03-11T17:29:42.485Z,3.30
2023-03-11T17:31:47.747Z,3.30
2023-03-11T17:33:52.773Z,3.40
2023-03-11T17:36:05.791Z,3.30
2023-03-11T17:38:11.184Z,3.20
2023-03-11T17:40:17.414Z,3.00
2023-03-11T17:42:25.440Z,2.90
2023-03-11T17:44:48.333Z,2.80
2023-03-11T17:46:56.449Z,2.90
2023-03-11T17:49:03.520Z,2.90
2023-03-11T17:51:10.372Z,2.90
2023-03-11T17:53:17.025Z,2.80
2023-03-11T17:55:26.313Z,2.70
2023-03-11T17:57:44.502Z,2.80
2023-03-11T17:59:54.554Z,2.80
2023-03-11T18:01:59.847Z,2.80
2023-03-11T18:04:07.520Z,2.70
2023-03-11T18:06:15.029Z,2.70
2023-03-11T18:08:20.237Z,2.70
2023-03-11T18:10:25.168Z,2.50
2023-03-11T18:12:33.843Z,2.50
2023-03-11T18:14:39.681Z,2.50
2023-03-11T18:16:46.320Z,2.50
2023-03-11T18:18:51.773Z,2.50
2023-03-11T18:20:56.801Z,2.50
2023-03-11T18:23:01.733Z,2.50
2023-03-11T18:25:09.794Z,2.40
2023-03-11T18:27:14.583Z,2.40
2023-03-11T18:29:25.335Z,2.40
2023-03-11T18:31:32.444Z,2.50
2023-03-11T18:33:37.792Z,2.30
2023-03-11T18:35:42.779Z,2.30
2023-03-11T18:37:47.759Z,2.40
2023-03-11T18:39:53.240Z,2.30
2023-03-11T18:41:58.184Z,2.30
2023-03-11T18:44:04.455Z,2.30
2023-03-11T18:46:16.062Z,2.20
2023-03-11T18:48:23.639Z,2.20
2023-03-11T18:50:28.600Z,2.10
2023-03-11T18:52:35.467Z,2.10
2023-03-11T18:54:40.749Z,2.10
2023-03-11T18:56:46.967Z,2.00
2023-03-11T18:58:56.294Z,1.90
2023-03-11T19:01:07.812Z,1.90
2023-03-11T19:03:16.502Z,1.80
2023-03-11T19:05:24.733Z,1.80
2023-03-11T19:07:31.279Z,1.70
2023-03-11T19:09:37.828Z,1.60
2023-03-11T19:11:47.109Z,1.60
2023-03-11T19:13:52.422Z,1.60
2023-03-11T19:15:59.720Z,1.40
2023-03-11T19:18:07.674Z,1.40
2023-03-11T19:20:15.930Z,1.40
2023-03-11T19:22:20.715Z,1.40
2023-03-11T19:24:25.758Z,1.50
2023-03-11T19:26:44.248Z,1.50
2023-03-11T19:28:50.870Z,1.50
2023-03-11T19:30:58.049Z,1.50
2023-03-11T19:33:03.141Z,1.40
2023-03-11T19:35:11.216Z,1.40
2023-03-11T19:37:19.893Z,1.40
2023-03-11T19:39:25.025Z,1.40
2023-03-11T19:41:30.048Z,1.40
2023-03-11T19:43:35.729Z,1.40
2023-03-11T19:45:41.140Z,1.40
2023-03-11T19:47:50.626Z,1.40
2023-03-11T19:49:57.496Z,1.40
2023-03-11T19:52:02.486Z,1.30
2023-03-11T19:54:13.900Z,1.40
2023-03-11T19:56:19.317Z,1.40
2023-03-11T19:58:30.229Z,1.30
2023-03-11T20:00:35.953Z,1.30
2023-03-11T20:02:41.160Z,1.20
2023-03-11T20:04:46.609Z,1.20
2023-03-11T20:06:52.501Z,1.20
2023-03-11T20:08:57.465Z,1.20
2023-03-11T20:11:06.547Z,1.10
2023-03-11T20:13:12.260Z,1.10
2023-03-11T20:15:19.619Z,1.10
2023-03-11T20:17:24.574Z,1.00
2023-03-11T20:19:30.533Z,1.00
2023-03-11T20:21:39.052Z,0.90
2023-03-11T20:23:44.128Z,0.90
2023-03-11T20:25:49.331Z,0.80
2023-03-11T20:27:59.338Z,0.70
2023-03-11T20:30:04.817Z,0.50
2023-03-11T20:32:10.825Z,0.50
2023-03-11T20:34:17.413Z,0.50
2023-03-11T20:36:34.886Z,0.50
2023-03-11T20:38:40.156Z,0.40
2023-03-11T20:40:45.355Z,0.30
2023-03-11T20:42:50.489Z,0.20
2023-03-11T20:44:59.017Z,0.20
2023-03-11T20:47:04.098Z,0.00
2023-03-11T20:49:09.127Z,0.00
2023-03-11T20:51:21.019Z,0.10
2023-03-11T20:53:30.553Z,0.00
2023-03-11T20:55:35.621Z,0.10
2023-03-11T20:57:43.422Z,0.20
2023-03-11T20:59:50.415Z,0.30
2023-03-11T21:02:00.421Z,0.20
2023-03-11T21:04:09.063Z,0.00
2023-03-11T21:06:19.670Z,-0.20
2023-03-11T21:08:26.430Z,-0.10
2023-03-11T21:10:33.352Z,0.10
2023-03-11T21:12:38.539Z,0.20
2023-03-11T21:14:43.582Z,0.20
2023-03-11T21:16:49.171Z,0.20
2023-03-11T21:18:56.919Z,0.20
2023-03-11T21:21:02.179Z,0.10
2023-03-11T21:23:08.814Z,-0.20
2023-03-11T21:25:14.300Z,-0.30
2023-03-11T21:27:21.156Z,-0.30
2023-03-11T21:29:26.156Z,-0.20
2023-03-11T21:31:34.864Z,-0.10
2023-03-11T21:33:40.953Z,-0.30
2023-03-11T21:35:56.850Z,-0.50
2023-03-11T21:38:02.200Z,-0.70
2023-03-11T21:40:09.361Z,-0.60
2023-03-11T21:42:14.889Z,-0.60
2023-03-11T21:44:19.858Z,-0.40
2023-03-11T21:46:27.063Z,-0.50
2023-03-11T21:48:32.199Z,-0.70
2023-03-11T21:50:37.488Z,-0.80
2023-03-11T21:52:45.560Z,-0.70
2023-03-11T21:54:50.450Z,-0.50
2023-03-11T21:56:56.571Z,-0.50
2023-03-11T21:59:01.846Z,-0.50
2023-03-11T22:01:07.687Z,-0.40
2023-03-11T22:03:13.660Z,-0.40
2023-03-11T22:05:21.410Z,-0.40
2023-03-11T22:07:27.040Z,-0.40
2023-03-11T22:09:35.226Z,-0.40
2023-03-11T22:11:41.295Z,-0.50
2023-03-11T22:13:47.493Z,-0.50
2023-03-11T22:15:52.768Z,-0.50
2023-03-11T22:17:58.553Z,-0.40
2023-03-11T22:20:05.475Z,-0.40
2023-03-11T22:22:12.056Z,-0.40
2023-03-11T22:24:18.501Z,-0.40
2023-03-11T22:26:26.570Z,-0.50
2023-03-11T22:28:32.461Z,-0.60
2023-03-11T22:30:37.605Z,-0.60
2023-03-11T22:32:42.971Z,-0.60
2023-03-11T22:34:47.983Z,-0.60
2023-03-11T22:36:55.736Z,-0.50
2023-03-11T22:39:02.826Z,-0.50
2023-03-11T22:41:09.720Z,-0.50
2023-03-11T22:43:18.230Z,-0.60
2023-03-11T22:45:25.169Z,-0.70
2023-03-11T22:47:30.240Z,-1.00
2023-03-11T22:49:35.813Z,-1.00
2023-03-11T22:51:40.775Z,-0.90
2023-03-11T22:53:45.858Z,-0.80
2023-03-11T22:55:50.833Z,-0.70
2023-03-11T22:57:56.868Z,-0.80
2023-03-11T23:00:05.323Z,-0.80
2023-03-11T23:02:10.355Z,-0.80
2023-03-11T23:04:15.370Z,-0.70
2023-03-11T23:06:25.030Z,-0.70
2023-03-11T23:08:32.138Z,-0.70
2023-03-11T23:10:37.202Z,-0.80
2023-03-11T23:12:47.145Z,-0.80
2023-03-11T23:14:53.337Z,-0.90
2023-03-11T23:17:00.974Z,-1.10
2023-03-11T23:19:06.060Z,-1.00
2023-03-11T23:21:19.866Z,-0.90
2023-03-11T23:23:26.851Z,-0.80
2023-03-11T23:25:34.338Z,-0.90
2023-03-11T23:27:39.662Z,-0.90
2023-03-11T23:29:45.229Z,-1.00
2023-03-11T23:31:50.420Z,-0.90
2023-03-11T23:33:59.795Z,-0.90
2023-03-11T23:36:06.315Z,-0.90
2023-03-11T23:38:14.672Z,-1.00
2023-03-11T23:40:20.209Z,-0.90
2023-03-11T23:42:26.395Z,-1.00
2023-03-11T23:44:34.948Z,-0.90
2023-03-11T23:46:39.969Z,-1.00
2023-03-11T23:48:45.143Z,-0.90
2023-03-11T23:50:53.915Z,-0.90
2023-03-11T23:52:59.208Z,-0.90
2023-03-11T23:55:04.241Z,-1.00
2023-03-11T23:57:11.681Z,-1.00
2023-03-11T23:59:16.645Z,-1.10
